首页
METAR-TAF:

METAR-TAF

机场 :

明尼阿波利斯-圣保罗国际机场

明尼阿波利斯, 明尼蘇達州, 美国

纬度: 44-52-59N, 经度: 093-13-44W, 海拔: 256米

当前天气观测

该预报发布于1小时和4分钟前的09:53 UTC
风速7节,风向南转南东
温度 19°C
湿度 94%
气压 1011 hPa
能見度: 16.1公里
多云层高于2800英尺
多云层高于11000英尺

METAR: KMSP 260953Z 16007KT 10SM BKN028 BKN110 19/18 A2984 RMK AO2 SLP102 T01890178

时间: 05:57 (10:57 UTC)

预报

该预报发布于2小时和24分钟前的08:33 UTC
预报有效从26日的 09点(UTC)到 27日的 12点(UTC)
风速3节,风向南转南东
能見度: 10公里
阴天层高于4000英尺
从 26日的 1000点(UTC)
风速6节,风向南转南东
能見度: 9.7公里
阴天层高于2500英尺
轻雾
从 26日的 1600点(UTC)
风速8节,风向
能見度: 10公里
阴天层高于2500英尺
从 26日的 1800点(UTC)
风速8节,风向西南
能見度: 9.7公里
多云层高于3500英尺
小阵雨, 轻雾
几率 30%
从 26日的 20点(UTC)到 26日的 24点(UTC)
能見度: 4.8公里
散云层高于3500英尺
多云层高于5000英尺, 积雨云.
雷暴, 雨, 轻雾
从 27日的 0000点(UTC)
风速5节,风向北转西北
能見度: 10公里
多云层高于4000英尺

TAF: KMSP 260833Z 2609/2712 15003KT P6SM OVC040 FM261000 16006KT 6SM BR OVC025 FM261600 19008KT P6SM OVC025 FM261800 23008KT 6SM -SHRA BR BKN035 PROB30 2620/2624 3SM TSRA BR SCT035 BKN050CB FM270000 34005KT P6SM BKN040

超过4000个机场的气象观测和天气预报(METAR&TAF报告)。

可查询的气象台以黄色和红色小点在地图上表示。

将鼠标移到小点上方,可查看气象台名称。

然后点击查看天气观测和预报。

如需切换地图:点击带黑十字的绿色按钮放大地图;点击带横线的绿色按钮缩小地图;或者点击绿色箭头查看邻近地区的地图。


METAR-TAF: